sensor_id;sensor_type;location;lat;lon;timestamp;P1;durP1;ratioP1;P2;durP2;ratioP2
70342;SDS011;57767;42.068;24.752;2023-06-19T00:00:34;6.78;;;5.68;;
70342;SDS011;57767;42.068;24.752;2023-06-19T00:01:36;6.40;;;5.80;;
70342;SDS011;57767;42.068;24.752;2023-06-19T00:02:39;6.70;;;5.60;;
70342;SDS011;57767;42.068;24.752;2023-06-19T00:03:41;6.00;;;5.47;;
70342;SDS011;57767;42.068;24.752;2023-06-19T00:04:43;7.60;;;5.68;;
70342;SDS011;57767;42.068;24.752;2023-06-19T00:05:46;6.53;;;5.63;;
70342;SDS011;57767;42.068;24.752;2023-06-19T00:06:48;6.55;;;5.95;;
70342;SDS011;57767;42.068;24.752;2023-06-19T00:07:49;6.43;;;5.65;;
70342;SDS011;57767;42.068;24.752;2023-06-19T00:08:51;7.25;;;5.70;;
70342;SDS011;57767;42.068;24.752;2023-06-19T00:09:53;7.13;;;5.60;;
70342;SDS011;57767;42.068;24.752;2023-06-19T00:10:55;7.20;;;5.30;;
70342;SDS011;57767;42.068;24.752;2023-06-19T00:11:57;5.50;;;5.00;;
70342;SDS011;57767;42.068;24.752;2023-06-19T00:13:00;7.63;;;6.20;;
70342;SDS011;57767;42.068;24.752;2023-06-19T00:14:02;6.85;;;5.18;;
70342;SDS011;57767;42.068;24.752;2023-06-19T00:15:04;6.47;;;5.78;;
70342;SDS011;57767;42.068;24.752;2023-06-19T00:16:07;6.25;;;5.65;;
70342;SDS011;57767;42.068;24.752;2023-06-19T00:17:08;6.25;;;5.43;;
70342;SDS011;57767;42.068;24.752;2023-06-19T00:18:10;6.45;;;5.68;;
70342;SDS011;57767;42.068;24.752;2023-06-19T00:19:12;8.82;;;5.72;;
70342;SDS011;57767;42.068;24.752;2023-06-19T00:20:14;6.20;;;5.60;;
70342;SDS011;57767;42.068;24.752;2023-06-19T00:21:16;6.40;;;5.20;;
70342;SDS011;57767;42.068;24.752;2023-06-19T00:22:18;6.03;;;5.43;;
70342;SDS011;57767;42.068;24.752;2023-06-19T00:23:20;6.40;;;5.45;;
70342;SDS011;57767;42.068;24.752;2023-06-19T00:24:22;6.03;;;4.82;;
70342;SDS011;57767;42.068;24.752;2023-06-19T00:25:25;5.80;;;5.20;;
70342;SDS011;57767;42.068;24.752;2023-06-19T00:26:26;7.03;;;5.40;;
70342;SDS011;57767;42.068;24.752;2023-06-19T00:27:28;7.40;;;6.07;;
70342;SDS011;57767;42.068;24.752;2023-06-19T00:28:30;9.73;;;6.10;;
70342;SDS011;57767;42.068;24.752;2023-06-19T00:29:32;8.10;;;5.53;;
70342;SDS011;57767;42.068;24.752;2023-06-19T00:30:34;6.10;;;5.47;;
70342;SDS011;57767;42.068;24.752;2023-06-19T00:31:36;6.07;;;5.38;;
70342;SDS011;57767;42.068;24.752;2023-06-19T00:32:38;8.02;;;5.57;;
70342;SDS011;57767;42.068;24.752;2023-06-19T00:33:48;6.70;;;5.53;;
70342;SDS011;57767;42.068;24.752;2023-06-19T00:34:50;5.60;;;5.07;;
70342;SDS011;57767;42.068;24.752;2023-06-19T00:35:51;9.35;;;5.75;;
70342;SDS011;57767;42.068;24.752;2023-06-19T00:36:53;7.18;;;5.20;;
70342;SDS011;57767;42.068;24.752;2023-06-19T00:38:01;5.88;;;5.30;;
70342;SDS011;57767;42.068;24.752;2023-06-19T00:39:03;8.02;;;5.38;;
70342;SDS011;57767;42.068;24.752;2023-06-19T00:40:06;6.05;;;5.45;;
70342;SDS011;57767;42.068;24.752;2023-06-19T00:41:12;7.47;;;5.53;;
70342;SDS011;57767;42.068;24.752;2023-06-19T00:42:14;6.47;;;5.25;;
70342;SDS011;57767;42.068;24.752;2023-06-19T00:43:15;6.28;;;5.50;;
70342;SDS011;57767;42.068;24.752;2023-06-19T00:44:17;8.60;;;5.53;;
70342;SDS011;57767;42.068;24.752;2023-06-19T00:45:19;6.80;;;5.68;;
70342;SDS011;57767;42.068;24.752;2023-06-19T00:46:21;7.63;;;5.53;;
70342;SDS011;57767;42.068;24.752;2023-06-19T00:47:23;6.13;;;5.28;;
70342;SDS011;57767;42.068;24.752;2023-06-19T00:48:27;6.20;;;5.60;;
70342;SDS011;57767;42.068;24.752;2023-06-19T00:49:31;5.55;;;5.00;;
70342;SDS011;57767;42.068;24.752;2023-06-19T00:50:33;7.15;;;5.53;;
70342;SDS011;57767;42.068;24.752;2023-06-19T00:51:35;12.25;;;5.95;;
70342;SDS011;57767;42.068;24.752;2023-06-19T00:52:37;9.05;;;6.28;;
70342;SDS011;57767;42.068;24.752;2023-06-19T00:53:39;7.10;;;5.53;;
70342;SDS011;57767;42.068;24.752;2023-06-19T00:54:41;6.38;;;5.10;;
70342;SDS011;57767;42.068;24.752;2023-06-19T00:55:43;7.13;;;5.55;;
70342;SDS011;57767;42.068;24.752;2023-06-19T00:56:46;6.63;;;5.20;;
70342;SDS011;57767;42.068;24.752;2023-06-19T00:57:49;6.00;;;5.20;;
70342;SDS011;57767;42.068;24.752;2023-06-19T00:58:53;6.60;;;5.55;;
70342;SDS011;57767;42.068;24.752;2023-06-19T00:59:56;6.45;;;5.07;;
70342;SDS011;57767;42.068;24.752;2023-06-19T01:00:59;6.68;;;4.88;;
70342;SDS011;57767;42.068;24.752;2023-06-19T01:02:09;6.15;;;5.45;;
70342;SDS011;57767;42.068;24.752;2023-06-19T01:03:12;6.22;;;5.40;;
70342;SDS011;57767;42.068;24.752;2023-06-19T01:04:18;8.10;;;5.57;;
70342;SDS011;57767;42.068;24.752;2023-06-19T01:05:20;5.43;;;5.03;;
70342;SDS011;57767;42.068;24.752;2023-06-19T01:06:23;5.68;;;5.15;;
70342;SDS011;57767;42.068;24.752;2023-06-19T01:09:14;6.32;;;5.25;;
70342;SDS011;57767;42.068;24.752;2023-06-19T01:10:19;6.38;;;5.00;;
70342;SDS011;57767;42.068;24.752;2023-06-19T01:11:26;5.68;;;5.18;;
70342;SDS011;57767;42.068;24.752;2023-06-19T01:12:37;6.97;;;5.45;;
70342;SDS011;57767;42.068;24.752;2023-06-19T01:13:47;6.88;;;5.18;;
70342;SDS011;57767;42.068;24.752;2023-06-19T01:14:58;6.85;;;4.93;;
70342;SDS011;57767;42.068;24.752;2023-06-19T01:16:02;6.18;;;5.50;;
70342;SDS011;57767;42.068;24.752;2023-06-19T01:17:05;8.25;;;5.40;;
70342;SDS011;57767;42.068;24.752;2023-06-19T01:18:07;6.18;;;5.07;;
70342;SDS011;57767;42.068;24.752;2023-06-19T01:19:15;5.28;;;4.78;;
70342;SDS011;57767;42.068;24.752;2023-06-19T01:20:21;5.50;;;5.00;;
70342;SDS011;57767;42.068;24.752;2023-06-19T01:21:23;7.20;;;5.15;;
70342;SDS011;57767;42.068;24.752;2023-06-19T01:22:26;5.38;;;4.82;;
70342;SDS011;57767;42.068;24.752;2023-06-19T01:23:33;5.40;;;4.90;;
70342;SDS011;57767;42.068;24.752;2023-06-19T01:24:35;5.60;;;5.10;;
70342;SDS011;57767;42.068;24.752;2023-06-19T01:25:37;7.32;;;5.40;;
70342;SDS011;57767;42.068;24.752;2023-06-19T01:26:40;6.90;;;4.78;;
70342;SDS011;57767;42.068;24.752;2023-06-19T01:27:43;6.65;;;5.18;;
70342;SDS011;57767;42.068;24.752;2023-06-19T01:28:45;6.95;;;5.00;;
70342;SDS011;57767;42.068;24.752;2023-06-19T01:29:47;5.82;;;5.15;;
70342;SDS011;57767;42.068;24.752;2023-06-19T01:30:49;6.03;;;4.70;;
70342;SDS011;57767;42.068;24.752;2023-06-19T01:31:59;7.68;;;5.32;;
70342;SDS011;57767;42.068;24.752;2023-06-19T01:33:22;7.15;;;5.07;;
70342;SDS011;57767;42.068;24.752;2023-06-19T01:34:27;5.97;;;5.30;;
70342;SDS011;57767;42.068;24.752;2023-06-19T01:35:33;5.10;;;4.57;;
70342;SDS011;57767;42.068;24.752;2023-06-19T01:36:37;5.40;;;4.90;;
70342;SDS011;57767;42.068;24.752;2023-06-19T01:37:40;8.73;;;5.10;;
70342;SDS011;57767;42.068;24.752;2023-06-19T01:38:43;5.45;;;4.95;;
70342;SDS011;57767;42.068;24.752;2023-06-19T01:39:46;6.15;;;5.00;;
70342;SDS011;57767;42.068;24.752;2023-06-19T01:40:50;5.68;;;5.00;;
70342;SDS011;57767;42.068;24.752;2023-06-19T01:41:53;5.93;;;4.78;;
70342;SDS011;57767;42.068;24.752;2023-06-19T01:42:56;7.40;;;5.20;;
70342;SDS011;57767;42.068;24.752;2023-06-19T01:44:02;5.55;;;5.05;;
70342;SDS011;57767;42.068;24.752;2023-06-19T01:45:04;5.50;;;4.93;;
70342;SDS011;57767;42.068;24.752;2023-06-19T01:46:07;7.30;;;4.75;;
70342;SDS011;57767;42.068;24.752;2023-06-19T01:47:10;6.75;;;5.13;;
70342;SDS011;57767;42.068;24.752;2023-06-19T01:48:13;5.60;;;4.90;;
70342;SDS011;57767;42.068;24.752;2023-06-19T01:49:16;7.78;;;5.43;;
70342;SDS011;57767;42.068;24.752;2023-06-19T01:50:19;5.53;;;4.47;;
70342;SDS011;57767;42.068;24.752;2023-06-19T01:51:23;6.13;;;5.45;;
70342;SDS011;57767;42.068;24.752;2023-06-19T01:52:24;8.10;;;5.18;;
70342;SDS011;57767;42.068;24.752;2023-06-19T01:53:26;5.63;;;5.10;;
70342;SDS011;57767;42.068;24.752;2023-06-19T01:54:30;5.78;;;4.95;;
70342;SDS011;57767;42.068;24.752;2023-06-19T01:55:32;5.60;;;5.10;;
70342;SDS011;57767;42.068;24.752;2023-06-19T01:56:34;5.80;;;4.65;;
70342;SDS011;57767;42.068;24.752;2023-06-19T01:57:36;5.13;;;4.63;;
70342;SDS011;57767;42.068;24.752;2023-06-19T01:58:38;5.63;;;5.05;;
70342;SDS011;57767;42.068;24.752;2023-06-19T01:59:40;5.32;;;4.82;;
70342;SDS011;57767;42.068;24.752;2023-06-19T02:00:42;7.13;;;5.00;;
70342;SDS011;57767;42.068;24.752;2023-06-19T02:01:44;7.30;;;4.95;;
70342;SDS011;57767;42.068;24.752;2023-06-19T02:02:46;6.22;;;5.57;;
70342;SDS011;57767;42.068;24.752;2023-06-19T02:03:48;5.47;;;4.68;;
70342;SDS011;57767;42.068;24.752;2023-06-19T02:04:50;5.50;;;5.00;;
70342;SDS011;57767;42.068;24.752;2023-06-19T02:05:52;7.47;;;5.32;;
70342;SDS011;57767;42.068;24.752;2023-06-19T02:06:53;5.47;;;4.82;;
70342;SDS011;57767;42.068;24.752;2023-06-19T02:07:55;6.80;;;4.85;;
70342;SDS011;57767;42.068;24.752;2023-06-19T02:08:57;5.22;;;4.30;;
70342;SDS011;57767;42.068;24.752;2023-06-19T02:09:59;7.35;;;4.75;;
70342;SDS011;57767;42.068;24.752;2023-06-19T02:11:01;6.25;;;4.93;;
70342;SDS011;57767;42.068;24.752;2023-06-19T02:12:03;5.70;;;5.10;;
70342;SDS011;57767;42.068;24.752;2023-06-19T02:13:05;6.22;;;5.10;;
70342;SDS011;57767;42.068;24.752;2023-06-19T02:14:07;5.53;;;4.97;;
70342;SDS011;57767;42.068;24.752;2023-06-19T02:15:10;7.13;;;5.28;;
70342;SDS011;57767;42.068;24.752;2023-06-19T02:16:12;7.30;;;4.82;;
70342;SDS011;57767;42.068;24.752;2023-06-19T02:17:14;7.25;;;5.18;;
70342;SDS011;57767;42.068;24.752;2023-06-19T02:18:16;9.57;;;5.18;;
70342;SDS011;57767;42.068;24.752;2023-06-19T02:19:18;9.82;;;5.82;;
70342;SDS011;57767;42.068;24.752;2023-06-19T02:20:20;6.63;;;5.05;;
70342;SDS011;57767;42.068;24.752;2023-06-19T02:21:23;6.10;;;4.70;;
70342;SDS011;57767;42.068;24.752;2023-06-19T02:22:25;7.07;;;4.88;;
70342;SDS011;57767;42.068;24.752;2023-06-19T02:23:27;8.32;;;5.20;;
70342;SDS011;57767;42.068;24.752;2023-06-19T02:24:29;6.50;;;4.90;;
70342;SDS011;57767;42.068;24.752;2023-06-19T02:25:31;7.07;;;4.57;;
70342;SDS011;57767;42.068;24.752;2023-06-19T02:26:32;5.93;;;4.63;;
70342;SDS011;57767;42.068;24.752;2023-06-19T02:27:34;9.40;;;4.80;;
70342;SDS011;57767;42.068;24.752;2023-06-19T02:28:36;5.60;;;5.00;;
70342;SDS011;57767;42.068;24.752;2023-06-19T02:29:38;5.97;;;4.95;;
70342;SDS011;57767;42.068;24.752;2023-06-19T02:30:40;5.45;;;4.47;;
70342;SDS011;57767;42.068;24.752;2023-06-19T02:31:41;11.20;;;4.90;;
70342;SDS011;57767;42.068;24.752;2023-06-19T02:32:43;6.25;;;5.28;;
70342;SDS011;57767;42.068;24.752;2023-06-19T02:33:45;5.20;;;4.70;;
70342;SDS011;57767;42.068;24.752;2023-06-19T02:34:47;4.97;;;4.43;;
70342;SDS011;57767;42.068;24.752;2023-06-19T02:35:49;5.82;;;4.53;;
70342;SDS011;57767;42.068;24.752;2023-06-19T02:36:51;7.13;;;5.15;;
70342;SDS011;57767;42.068;24.752;2023-06-19T02:37:52;5.32;;;4.80;;
70342;SDS011;57767;42.068;24.752;2023-06-19T02:38:54;7.95;;;4.95;;
70342;SDS011;57767;42.068;24.752;2023-06-19T02:39:56;8.38;;;5.07;;
70342;SDS011;57767;42.068;24.752;2023-06-19T02:40:58;6.30;;;4.88;;
70342;SDS011;57767;42.068;24.752;2023-06-19T02:42:02;5.30;;;4.80;;
70342;SDS011;57767;42.068;24.752;2023-06-19T02:43:04;6.60;;;5.20;;
70342;SDS011;57767;42.068;24.752;2023-06-19T02:44:06;5.78;;;4.45;;
70342;SDS011;57767;42.068;24.752;2023-06-19T02:45:08;7.25;;;5.00;;
70342;SDS011;57767;42.068;24.752;2023-06-19T02:46:10;5.10;;;4.60;;
70342;SDS011;57767;42.068;24.752;2023-06-19T02:47:13;5.30;;;4.80;;
70342;SDS011;57767;42.068;24.752;2023-06-19T02:48:15;5.10;;;4.60;;
70342;SDS011;57767;42.068;24.752;2023-06-19T02:49:17;6.18;;;4.68;;
70342;SDS011;57767;42.068;24.752;2023-06-19T02:50:19;5.28;;;4.78;;
70342;SDS011;57767;42.068;24.752;2023-06-19T02:51:21;7.32;;;5.07;;
70342;SDS011;57767;42.068;24.752;2023-06-19T02:52:23;6.07;;;4.85;;
70342;SDS011;57767;42.068;24.752;2023-06-19T02:53:25;9.98;;;5.20;;
70342;SDS011;57767;42.068;24.752;2023-06-19T02:54:27;5.70;;;5.10;;
70342;SDS011;57767;42.068;24.752;2023-06-19T02:55:29;6.25;;;4.70;;
70342;SDS011;57767;42.068;24.752;2023-06-19T02:56:30;5.93;;;4.97;;
70342;SDS011;57767;42.068;24.752;2023-06-19T02:57:32;7.78;;;4.88;;
70342;SDS011;57767;42.068;24.752;2023-06-19T02:58:34;5.18;;;4.68;;
70342;SDS011;57767;42.068;24.752;2023-06-19T02:59:38;5.95;;;4.45;;
70342;SDS011;57767;42.068;24.752;2023-06-19T03:00:40;5.40;;;4.90;;
70342;SDS011;57767;42.068;24.752;2023-06-19T03:01:42;6.63;;;5.00;;
70342;SDS011;57767;42.068;24.752;2023-06-19T03:02:44;5.80;;;5.20;;
70342;SDS011;57767;42.068;24.752;2023-06-19T03:03:46;5.03;;;4.55;;
70342;SDS011;57767;42.068;24.752;2023-06-19T03:04:49;5.47;;;4.97;;
70342;SDS011;57767;42.068;24.752;2023-06-19T03:05:51;5.07;;;4.65;;
70342;SDS011;57767;42.068;24.752;2023-06-19T03:06:53;5.57;;;5.07;;
70342;SDS011;57767;42.068;24.752;2023-06-19T03:07:55;5.18;;;4.68;;
70342;SDS011;57767;42.068;24.752;2023-06-19T03:08:57;6.10;;;4.13;;
70342;SDS011;57767;42.068;24.752;2023-06-19T03:10:00;5.82;;;4.57;;
70342;SDS011;57767;42.068;24.752;2023-06-19T03:11:02;5.13;;;4.68;;
70342;SDS011;57767;42.068;24.752;2023-06-19T03:12:08;6.80;;;4.50;;
70342;SDS011;57767;42.068;24.752;2023-06-19T03:13:10;6.15;;;4.53;;
70342;SDS011;57767;42.068;24.752;2023-06-19T03:14:12;6.72;;;4.78;;
70342;SDS011;57767;42.068;24.752;2023-06-19T03:15:14;6.25;;;4.53;;
70342;SDS011;57767;42.068;24.752;2023-06-19T03:16:16;6.75;;;4.90;;
70342;SDS011;57767;42.068;24.752;2023-06-19T03:17:18;5.50;;;4.60;;
70342;SDS011;57767;42.068;24.752;2023-06-19T03:18:20;7.28;;;4.82;;
70342;SDS011;57767;42.068;24.752;2023-06-19T03:19:21;4.70;;;4.30;;
70342;SDS011;57767;42.068;24.752;2023-06-19T03:20:23;5.72;;;4.63;;
70342;SDS011;57767;42.068;24.752;2023-06-19T03:21:26;4.78;;;4.28;;
70342;SDS011;57767;42.068;24.752;2023-06-19T03:22:28;6.45;;;4.60;;
70342;SDS011;57767;42.068;24.752;2023-06-19T03:23:29;5.97;;;4.93;;
70342;SDS011;57767;42.068;24.752;2023-06-19T03:24:31;6.72;;;5.07;;
70342;SDS011;57767;42.068;24.752;2023-06-19T03:25:33;5.20;;;4.40;;
70342;SDS011;57767;42.068;24.752;2023-06-19T03:26:36;6.47;;;4.68;;
70342;SDS011;57767;42.068;24.752;2023-06-19T03:27:38;7.78;;;5.00;;
70342;SDS011;57767;42.068;24.752;2023-06-19T03:28:40;5.40;;;4.50;;
70342;SDS011;57767;42.068;24.752;2023-06-19T03:29:42;4.78;;;4.38;;
70342;SDS011;57767;42.068;24.752;2023-06-19T03:30:43;4.88;;;4.40;;
70342;SDS011;57767;42.068;24.752;2023-06-19T03:31:45;11.02;;;4.93;;
70342;SDS011;57767;42.068;24.752;2023-06-19T03:32:47;8.57;;;4.72;;
70342;SDS011;57767;42.068;24.752;2023-06-19T03:33:49;4.93;;;4.43;;
70342;SDS011;57767;42.068;24.752;2023-06-19T03:34:50;8.05;;;4.78;;
70342;SDS011;57767;42.068;24.752;2023-06-19T03:35:52;6.22;;;4.63;;
70342;SDS011;57767;42.068;24.752;2023-06-19T03:36:54;5.45;;;4.70;;
70342;SDS011;57767;42.068;24.752;2023-06-19T03:37:56;6.45;;;4.35;;
70342;SDS011;57767;42.068;24.752;2023-06-19T03:38:57;6.03;;;4.75;;
70342;SDS011;57767;42.068;24.752;2023-06-19T03:39:59;4.85;;;4.40;;
70342;SDS011;57767;42.068;24.752;2023-06-19T03:41:01;5.45;;;4.85;;
70342;SDS011;57767;42.068;24.752;2023-06-19T03:42:03;7.05;;;4.53;;
70342;SDS011;57767;42.068;24.752;2023-06-19T03:43:05;5.30;;;4.55;;
70342;SDS011;57767;42.068;24.752;2023-06-19T03:44:07;7.88;;;4.38;;
70342;SDS011;57767;42.068;24.752;2023-06-19T03:45:09;5.40;;;4.90;;
70342;SDS011;57767;42.068;24.752;2023-06-19T03:46:11;4.80;;;4.30;;
70342;SDS011;57767;42.068;24.752;2023-06-19T03:47:13;6.53;;;4.55;;
70342;SDS011;57767;42.068;24.752;2023-06-19T03:48:15;4.43;;;4.03;;
70342;SDS011;57767;42.068;24.752;2023-06-19T03:49:18;5.35;;;4.78;;
70342;SDS011;57767;42.068;24.752;2023-06-19T03:50:20;7.38;;;4.60;;
70342;SDS011;57767;42.068;24.752;2023-06-19T03:51:25;9.70;;;4.30;;
70342;SDS011;57767;42.068;24.752;2023-06-19T03:52:27;5.35;;;4.25;;
70342;SDS011;57767;42.068;24.752;2023-06-19T03:53:29;5.28;;;4.55;;
70342;SDS011;57767;42.068;24.752;2023-06-19T03:54:31;4.88;;;4.38;;
70342;SDS011;57767;42.068;24.752;2023-06-19T03:55:33;4.95;;;4.45;;
70342;SDS011;57767;42.068;24.752;2023-06-19T03:56:35;6.00;;;5.00;;
70342;SDS011;57767;42.068;24.752;2023-06-19T03:57:37;7.18;;;4.60;;
70342;SDS011;57767;42.068;24.752;2023-06-19T03:58:39;4.90;;;4.40;;
70342;SDS011;57767;42.068;24.752;2023-06-19T03:59:40;5.88;;;4.50;;
70342;SDS011;57767;42.068;24.752;2023-06-19T04:00:42;5.03;;;4.53;;
70342;SDS011;57767;42.068;24.752;2023-06-19T04:01:44;5.75;;;4.38;;
70342;SDS011;57767;42.068;24.752;2023-06-19T04:02:46;4.90;;;4.30;;
70342;SDS011;57767;42.068;24.752;2023-06-19T04:03:48;4.72;;;4.22;;
70342;SDS011;57767;42.068;24.752;2023-06-19T04:04:50;5.38;;;4.70;;
70342;SDS011;57767;42.068;24.752;2023-06-19T04:05:51;5.15;;;4.18;;
70342;SDS011;57767;42.068;24.752;2023-06-19T04:06:53;4.80;;;4.30;;
70342;SDS011;57767;42.068;24.752;2023-06-19T04:07:55;6.32;;;4.45;;
70342;SDS011;57767;42.068;24.752;2023-06-19T04:08:57;6.13;;;4.82;;
70342;SDS011;57767;42.068;24.752;2023-06-19T04:09:58;7.32;;;4.75;;
70342;SDS011;57767;42.068;24.752;2023-06-19T04:11:00;6.40;;;4.88;;
70342;SDS011;57767;42.068;24.752;2023-06-19T04:12:02;7.40;;;4.53;;
70342;SDS011;57767;42.068;24.752;2023-06-19T04:13:04;7.65;;;4.20;;
70342;SDS011;57767;42.068;24.752;2023-06-19T04:14:08;5.47;;;4.38;;
70342;SDS011;57767;42.068;24.752;2023-06-19T04:15:10;5.18;;;4.43;;
70342;SDS011;57767;42.068;24.752;2023-06-19T04:16:12;4.75;;;4.30;;
70342;SDS011;57767;42.068;24.752;2023-06-19T04:17:14;6.03;;;4.40;;
70342;SDS011;57767;42.068;24.752;2023-06-19T04:18:17;3.80;;;3.50;;
70342;SDS011;57767;42.068;24.752;2023-06-19T04:19:20;5.65;;;4.60;;
70342;SDS011;57767;42.068;24.752;2023-06-19T04:20:22;5.25;;;4.75;;
70342;SDS011;57767;42.068;24.752;2023-06-19T04:21:25;5.65;;;4.20;;
70342;SDS011;57767;42.068;24.752;2023-06-19T04:22:27;7.07;;;3.95;;
70342;SDS011;57767;42.068;24.752;2023-06-19T04:23:29;4.95;;;4.45;;
70342;SDS011;57767;42.068;24.752;2023-06-19T04:24:31;8.48;;;4.47;;
70342;SDS011;57767;42.068;24.752;2023-06-19T04:25:33;4.80;;;4.03;;
70342;SDS011;57767;42.068;24.752;2023-06-19T04:26:35;4.80;;;4.30;;
70342;SDS011;57767;42.068;24.752;2023-06-19T04:27:40;4.82;;;4.20;;
70342;SDS011;57767;42.068;24.752;2023-06-19T04:28:42;4.50;;;4.10;;
70342;SDS011;57767;42.068;24.752;2023-06-19T04:29:44;5.25;;;4.75;;
70342;SDS011;57767;42.068;24.752;2023-06-19T04:30:45;4.60;;;3.88;;
70342;SDS011;57767;42.068;24.752;2023-06-19T04:31:47;12.05;;;4.55;;
70342;SDS011;57767;42.068;24.752;2023-06-19T04:32:49;6.05;;;4.20;;
70342;SDS011;57767;42.068;24.752;2023-06-19T04:33:51;5.00;;;4.50;;
70342;SDS011;57767;42.068;24.752;2023-06-19T04:34:53;5.18;;;4.10;;
70342;SDS011;57767;42.068;24.752;2023-06-19T04:35:55;4.65;;;4.25;;
70342;SDS011;57767;42.068;24.752;2023-06-19T04:37:00;4.65;;;4.18;;
70342;SDS011;57767;42.068;24.752;2023-06-19T04:38:02;6.05;;;3.83;;
70342;SDS011;57767;42.068;24.752;2023-06-19T04:39:04;8.13;;;4.18;;
70342;SDS011;57767;42.068;24.752;2023-06-19T04:40:06;4.65;;;4.22;;
70342;SDS011;57767;42.068;24.752;2023-06-19T04:41:09;4.85;;;4.45;;
70342;SDS011;57767;42.068;24.752;2023-06-19T04:42:13;5.55;;;4.20;;
70342;SDS011;57767;42.068;24.752;2023-06-19T04:43:22;5.30;;;4.00;;
70342;SDS011;57767;42.068;24.752;2023-06-19T04:44:26;4.28;;;3.88;;
70342;SDS011;57767;42.068;24.752;2023-06-19T04:45:28;4.63;;;4.22;;
70342;SDS011;57767;42.068;24.752;2023-06-19T04:46:30;4.75;;;3.92;;
70342;SDS011;57767;42.068;24.752;2023-06-19T04:47:32;4.95;;;4.38;;
70342;SDS011;57767;42.068;24.752;2023-06-19T04:48:52;4.43;;;4.03;;
70342;SDS011;57767;42.068;24.752;2023-06-19T04:49:54;4.93;;;4.43;;
70342;SDS011;57767;42.068;24.752;2023-06-19T04:50:56;4.60;;;3.95;;
70342;SDS011;57767;42.068;24.752;2023-06-19T04:51:57;5.95;;;4.25;;
70342;SDS011;57767;42.068;24.752;2023-06-19T04:52:59;5.15;;;4.10;;
70342;SDS011;57767;42.068;24.752;2023-06-19T04:54:01;5.45;;;3.88;;
70342;SDS011;57767;42.068;24.752;2023-06-19T04:55:06;4.22;;;3.65;;
70342;SDS011;57767;42.068;24.752;2023-06-19T04:56:12;5.03;;;3.83;;
70342;SDS011;57767;42.068;24.752;2023-06-19T04:57:13;8.40;;;4.30;;
70342;SDS011;57767;42.068;24.752;2023-06-19T04:58:16;6.18;;;4.07;;
70342;SDS011;57767;42.068;24.752;2023-06-19T04:59:17;8.20;;;3.72;;
70342;SDS011;57767;42.068;24.752;2023-06-19T05:00:19;5.55;;;4.00;;
70342;SDS011;57767;42.068;24.752;2023-06-19T05:01:21;5.63;;;4.35;;
70342;SDS011;57767;42.068;24.752;2023-06-19T05:02:29;5.80;;;4.05;;
70342;SDS011;57767;42.068;24.752;2023-06-19T05:03:30;5.45;;;4.45;;
70342;SDS011;57767;42.068;24.752;2023-06-19T05:04:32;5.03;;;4.18;;
70342;SDS011;57767;42.068;24.752;2023-06-19T05:05:34;5.60;;;3.83;;
70342;SDS011;57767;42.068;24.752;2023-06-19T05:06:36;4.35;;;3.90;;
70342;SDS011;57767;42.068;24.752;2023-06-19T05:07:39;6.13;;;4.60;;
70342;SDS011;57767;42.068;24.752;2023-06-19T05:08:41;4.80;;;4.00;;
70342;SDS011;57767;42.068;24.752;2023-06-19T05:09:42;4.50;;;4.10;;
70342;SDS011;57767;42.068;24.752;2023-06-19T05:10:44;6.57;;;3.83;;
70342;SDS011;57767;42.068;24.752;2023-06-19T05:11:46;5.68;;;4.60;;
70342;SDS011;57767;42.068;24.752;2023-06-19T05:12:48;4.93;;;3.90;;
70342;SDS011;57767;42.068;24.752;2023-06-19T05:13:50;4.57;;;4.00;;
70342;SDS011;57767;42.068;24.752;2023-06-19T05:14:52;7.90;;;4.40;;
70342;SDS011;57767;42.068;24.752;2023-06-19T05:15:54;4.63;;;4.13;;
70342;SDS011;57767;42.068;24.752;2023-06-19T05:16:57;4.28;;;3.88;;
70342;SDS011;57767;42.068;24.752;2023-06-19T05:17:59;5.88;;;3.95;;
70342;SDS011;57767;42.068;24.752;2023-06-19T05:19:01;4.60;;;4.20;;
70342;SDS011;57767;42.068;24.752;2023-06-19T05:20:03;4.45;;;4.05;;
70342;SDS011;57767;42.068;24.752;2023-06-19T05:21:06;8.30;;;4.40;;
70342;SDS011;57767;42.068;24.752;2023-06-19T05:22:08;6.07;;;3.95;;
70342;SDS011;57767;42.068;24.752;2023-06-19T05:23:10;6.25;;;4.07;;
70342;SDS011;57767;42.068;24.752;2023-06-19T05:24:11;5.97;;;3.70;;
70342;SDS011;57767;42.068;24.752;2023-06-19T05:25:13;5.53;;;4.28;;
70342;SDS011;57767;42.068;24.752;2023-06-19T05:26:18;6.00;;;3.90;;
70342;SDS011;57767;42.068;24.752;2023-06-19T05:27:21;4.30;;;3.90;;
70342;SDS011;57767;42.068;24.752;2023-06-19T05:28:23;7.72;;;3.85;;
70342;SDS011;57767;42.068;24.752;2023-06-19T05:29:24;4.60;;;3.95;;
70342;SDS011;57767;42.068;24.752;2023-06-19T05:30:26;6.85;;;3.60;;
70342;SDS011;57767;42.068;24.752;2023-06-19T05:31:28;6.43;;;3.72;;
70342;SDS011;57767;42.068;24.752;2023-06-19T05:32:30;4.28;;;3.88;;
70342;SDS011;57767;42.068;24.752;2023-06-19T05:33:32;4.05;;;3.65;;
70342;SDS011;57767;42.068;24.752;2023-06-19T05:34:35;4.45;;;3.53;;
70342;SDS011;57767;42.068;24.752;2023-06-19T05:35:36;5.47;;;4.00;;
70342;SDS011;57767;42.068;24.752;2023-06-19T05:36:38;5.50;;;3.50;;
70342;SDS011;57767;42.068;24.752;2023-06-19T05:37:40;5.07;;;3.70;;
70342;SDS011;57767;42.068;24.752;2023-06-19T05:38:45;3.80;;;3.50;;
70342;SDS011;57767;42.068;24.752;2023-06-19T05:39:46;4.28;;;3.70;;
70342;SDS011;57767;42.068;24.752;2023-06-19T05:40:48;5.43;;;3.75;;
70342;SDS011;57767;42.068;24.752;2023-06-19T05:41:51;5.97;;;3.72;;
70342;SDS011;57767;42.068;24.752;2023-06-19T05:42:53;5.68;;;3.45;;
70342;SDS011;57767;42.068;24.752;2023-06-19T05:43:57;7.68;;;3.88;;
70342;SDS011;57767;42.068;24.752;2023-06-19T05:44:58;5.10;;;4.10;;
70342;SDS011;57767;42.068;24.752;2023-06-19T05:46:00;5.25;;;3.92;;
70342;SDS011;57767;42.068;24.752;2023-06-19T05:47:03;5.38;;;4.00;;
70342;SDS011;57767;42.068;24.752;2023-06-19T05:48:05;5.97;;;3.90;;
70342;SDS011;57767;42.068;24.752;2023-06-19T05:49:07;8.25;;;3.90;;
70342;SDS011;57767;42.068;24.752;2023-06-19T05:50:09;4.82;;;3.70;;
70342;SDS011;57767;42.068;24.752;2023-06-19T05:51:11;6.63;;;4.13;;
70342;SDS011;57767;42.068;24.752;2023-06-19T05:52:13;3.88;;;3.40;;
70342;SDS011;57767;42.068;24.752;2023-06-19T05:53:15;7.60;;;3.67;;
70342;SDS011;57767;42.068;24.752;2023-06-19T05:54:17;5.05;;;3.53;;
70342;SDS011;57767;42.068;24.752;2023-06-19T05:55:19;6.03;;;3.67;;
70342;SDS011;57767;42.068;24.752;2023-06-19T05:56:21;4.43;;;3.70;;
70342;SDS011;57767;42.068;24.752;2023-06-19T05:57:23;4.57;;;3.70;;
70342;SDS011;57767;42.068;24.752;2023-06-19T05:58:24;4.32;;;3.92;;
70342;SDS011;57767;42.068;24.752;2023-06-19T05:59:27;7.85;;;3.58;;
70342;SDS011;57767;42.068;24.752;2023-06-19T06:00:28;4.05;;;3.65;;
70342;SDS011;57767;42.068;24.752;2023-06-19T06:01:31;4.10;;;3.72;;
70342;SDS011;57767;42.068;24.752;2023-06-19T06:02:33;4.35;;;3.95;;
70342;SDS011;57767;42.068;24.752;2023-06-19T06:03:35;4.13;;;3.70;;
70342;SDS011;57767;42.068;24.752;2023-06-19T06:04:37;4.90;;;3.33;;
70342;SDS011;57767;42.068;24.752;2023-06-19T06:05:39;7.00;;;3.58;;
70342;SDS011;57767;42.068;24.752;2023-06-19T06:06:41;4.72;;;3.40;;
70342;SDS011;57767;42.068;24.752;2023-06-19T06:07:43;5.15;;;3.78;;
70342;SDS011;57767;42.068;24.752;2023-06-19T06:08:44;4.13;;;3.72;;
70342;SDS011;57767;42.068;24.752;2023-06-19T06:09:46;4.03;;;3.53;;
70342;SDS011;57767;42.068;24.752;2023-06-19T06:10:48;5.63;;;3.85;;
70342;SDS011;57767;42.068;24.752;2023-06-19T06:11:50;4.35;;;3.47;;
70342;SDS011;57767;42.068;24.752;2023-06-19T06:12:52;4.53;;;3.50;;